createdAt,value
2019-05-01T00:03:36.419Z,21.13
2019-05-01T00:08:42.960Z,19.80
2019-05-01T00:13:51.962Z,22.00
2019-05-01T00:18:59.599Z,22.93
2019-05-01T00:24:07.243Z,24.77
2019-05-01T00:29:13.830Z,21.07
2019-05-01T00:34:20.970Z,22.03
2019-05-01T00:39:27.981Z,21.73
2019-05-01T00:44:34.788Z,25.07
2019-05-01T00:49:41.714Z,21.77
2019-05-01T00:54:49.902Z,23.67
2019-05-01T01:00:05.060Z,22.07
2019-05-01T01:05:11.361Z,22.77
2019-05-01T01:10:17.458Z,22.50
2019-05-01T01:15:26.235Z,23.23
2019-05-01T01:20:33.318Z,23.57
2019-05-01T01:25:39.733Z,22.00
2019-05-01T01:30:56.756Z,25.40
2019-05-01T01:36:04.009Z,23.00
2019-05-01T01:41:10.320Z,24.43
2019-05-01T01:46:17.989Z,22.97
2019-05-01T01:51:24.773Z,25.43
2019-05-01T01:56:30.396Z,23.53
2019-05-01T02:01:54.037Z,21.77
2019-05-01T02:07:01.702Z,24.30
2019-05-01T02:12:11.188Z,23.90
2019-05-01T02:17:20.229Z,23.97
2019-05-01T02:22:27.873Z,22.03
2019-05-01T02:27:41.242Z,23.80
2019-05-01T02:32:48.258Z,22.57
2019-05-01T02:37:55.864Z,23.80
2019-05-01T02:43:03.823Z,23.07
2019-05-01T02:48:11.891Z,22.40
2019-05-01T02:53:22.983Z,23.70
2019-05-01T02:58:29.452Z,22.57
2019-05-01T03:03:36.249Z,24.40
2019-05-01T03:08:42.705Z,24.13
2019-05-01T03:13:51.033Z,26.40
2019-05-01T03:19:00.674Z,27.37
2019-05-01T03:24:25.494Z,24.07
2019-05-01T03:29:31.222Z,26.27
2019-05-01T03:34:38.623Z,24.73
2019-05-01T03:39:45.586Z,27.10
2019-05-01T03:44:53.391Z,24.67
2019-05-01T03:49:59.440Z,24.73
2019-05-01T03:55:05.313Z,26.20
2019-05-01T04:00:13.812Z,30.00
2019-05-01T04:05:22.429Z,31.97
2019-05-01T04:10:27.573Z,34.40
2019-05-01T04:15:34.940Z,31.87
2019-05-01T04:20:41.663Z,31.73
2019-05-01T04:25:49.010Z,31.37
2019-05-01T04:31:20.193Z,31.10
2019-05-01T04:36:31.547Z,32.33
2019-05-01T04:41:37.199Z,26.93
2019-05-01T04:46:42.679Z,28.50
2019-05-01T04:51:50.379Z,29.23
2019-05-01T04:56:57.437Z,28.00
2019-05-01T05:02:07.414Z,30.00
2019-05-01T05:07:15.268Z,28.03
2019-05-01T05:12:41.204Z,29.17
2019-05-01T05:17:46.525Z,32.00
2019-05-01T05:22:53.673Z,30.97
2019-05-01T05:28:00.508Z,30.00
2019-05-01T05:33:18.135Z,29.20
2019-05-01T05:38:39.520Z,30.23
2019-05-01T05:43:48.844Z,30.80
2019-05-01T05:48:56.128Z,32.50
2019-05-01T05:54:31.510Z,34.13
2019-05-01T06:22:53.046Z,40.43
2019-05-01T06:27:59.563Z,36.20
2019-05-01T06:33:09.413Z,34.43
2019-05-01T06:38:18.266Z,31.20
2019-05-01T06:44:08.319Z,31.30
2019-05-01T06:49:29.288Z,30.43
2019-05-01T07:00:43.057Z,30.03
2019-05-01T07:05:54.455Z,29.90
2019-05-01T07:10:58.864Z,31.07
2019-05-01T07:16:09.287Z,31.20
2019-05-01T07:26:47.925Z,29.80
2019-05-01T07:31:57.274Z,30.90
2019-05-01T07:37:08.511Z,29.40
2019-05-01T07:42:34.414Z,29.67
2019-05-01T07:47:44.333Z,28.10
2019-05-01T07:52:52.243Z,29.37
2019-05-01T07:57:59.234Z,31.37
2019-05-01T08:03:07.287Z,33.40
2019-05-01T08:08:13.365Z,30.60
2019-05-01T08:13:20.102Z,34.53
2019-05-01T08:18:32.613Z,31.87
2019-05-01T08:23:42.679Z,34.63
2019-05-01T08:29:06.925Z,33.10
2019-05-01T08:34:15.030Z,35.97
2019-05-01T08:39:27.762Z,36.30
2019-05-01T08:45:06.914Z,32.07
2019-05-01T08:50:25.095Z,35.63
2019-05-01T08:55:35.390Z,36.87
2019-05-01T09:00:42.845Z,33.00
2019-05-01T09:05:52.138Z,31.00
2019-05-01T09:11:02.338Z,35.17
2019-05-01T09:16:12.337Z,33.77
2019-05-01T09:21:18.722Z,32.53
2019-05-01T09:26:45.433Z,32.43
2019-05-01T09:32:40.950Z,33.47
2019-05-01T09:38:07.333Z,33.70
2019-05-01T09:43:19.064Z,31.50
2019-05-01T09:48:25.965Z,31.27
2019-05-01T09:53:47.364Z,33.53
2019-05-01T09:58:54.765Z,32.77
2019-05-01T10:04:01.632Z,34.03
2019-05-01T10:09:12.099Z,34.83
2019-05-01T10:14:36.364Z,37.70
2019-05-01T10:19:42.726Z,33.97
2019-05-01T10:24:48.171Z,32.27
2019-05-01T10:30:14.279Z,32.00
2019-05-01T10:35:42.970Z,36.00
2019-05-01T10:40:48.047Z,36.80
2019-05-01T10:45:54.858Z,34.37
2019-05-01T10:51:00.992Z,35.00
2019-05-01T10:56:26.342Z,38.57
2019-05-01T11:01:51.187Z,43.43
2019-05-01T11:06:58.141Z,46.27
2019-05-01T11:12:03.573Z,46.60
2019-05-01T11:17:09.736Z,48.37
2019-05-01T11:22:16.406Z,47.13
2019-05-01T11:27:23.380Z,48.20
2019-05-01T11:32:48.344Z,43.87
2019-05-01T11:38:03.314Z,43.90
2019-05-01T11:43:09.017Z,46.20
2019-05-01T11:48:17.867Z,41.80
2019-05-01T11:53:24.629Z,42.40
2019-05-01T11:58:32.399Z,43.07
2019-05-01T12:03:44.401Z,44.17
2019-05-01T12:08:54.963Z,42.90
2019-05-01T12:14:02.077Z,42.23
2019-05-01T12:19:09.010Z,40.30
2019-05-01T12:24:15.035Z,40.97
2019-05-01T12:29:20.433Z,44.03
2019-05-01T12:34:25.834Z,41.53
2019-05-01T12:39:33.025Z,42.67
2019-05-01T12:44:39.060Z,44.47
2019-05-01T12:49:46.970Z,44.90
2019-05-01T12:54:59.346Z,45.30
2019-05-01T13:00:08.952Z,49.47
2019-05-01T13:05:12.825Z,47.17
2019-05-01T13:10:19.178Z,44.87
2019-05-01T13:15:27.715Z,48.03
2019-05-01T13:20:33.386Z,45.57
2019-05-01T13:25:40.368Z,48.70
2019-05-01T13:30:57.112Z,45.57
2019-05-01T13:36:08.397Z,47.17
2019-05-01T13:41:14.136Z,47.83
2019-05-01T13:46:20.824Z,49.63
2019-05-01T13:51:27.151Z,46.50
2019-05-01T13:56:35.509Z,40.17
2019-05-01T14:01:41.381Z,43.40
2019-05-01T14:06:47.818Z,42.53
2019-05-01T14:12:05.386Z,39.87
2019-05-01T14:17:12.357Z,37.73
2019-05-01T14:22:40.886Z,41.67
2019-05-01T14:27:48.314Z,38.13
2019-05-01T14:32:56.205Z,37.93
2019-05-01T14:38:03.828Z,37.60
2019-05-01T14:43:10.158Z,36.90
2019-05-01T14:48:18.436Z,33.93
2019-05-01T14:53:25.277Z,34.00
2019-05-01T14:58:31.947Z,36.00
2019-05-01T15:03:38.303Z,38.67
2019-05-01T15:08:49.389Z,38.70
2019-05-01T15:14:22.715Z,40.03
2019-05-01T15:19:31.786Z,42.57
2019-05-01T15:24:38.955Z,42.37
2019-05-01T15:29:47.526Z,41.60
2019-05-01T15:34:54.281Z,45.53
2019-05-01T15:40:10.280Z,42.63
2019-05-01T15:45:18.493Z,44.87
2019-05-01T15:50:27.006Z,45.17
2019-05-01T15:55:33.586Z,43.93
2019-05-01T16:00:38.841Z,43.17
2019-05-01T16:05:45.537Z,40.60
2019-05-01T16:11:05.492Z,39.97
2019-05-01T16:16:12.687Z,37.90
2019-05-01T16:21:19.125Z,37.37
2019-05-01T16:26:25.055Z,36.53
2019-05-01T16:31:33.139Z,36.73
2019-05-01T16:36:38.703Z,37.97
2019-05-01T16:41:47.368Z,37.40
2019-05-01T16:46:55.181Z,35.37
2019-05-01T16:52:04.881Z,36.23
2019-05-01T16:57:14.287Z,36.40
2019-05-01T17:02:47.702Z,34.10
2019-05-01T17:08:17.134Z,33.97
2019-05-01T17:13:24.165Z,32.33
2019-05-01T17:18:30.408Z,30.00
2019-05-01T17:23:39.319Z,30.37
2019-05-01T17:28:48.901Z,31.03
2019-05-01T17:33:55.495Z,30.90
2019-05-01T17:39:01.875Z,37.50
2019-05-01T17:44:09.324Z,33.93
2019-05-01T17:49:18.149Z,36.30
2019-05-01T17:54:27.005Z,33.83
2019-05-01T17:59:34.385Z,34.13
2019-05-01T18:04:54.453Z,37.03
2019-05-01T18:10:01.118Z,38.50
2019-05-01T18:15:08.277Z,35.43
2019-05-01T18:20:21.106Z,36.63
2019-05-01T18:25:37.633Z,36.80
2019-05-01T18:30:46.599Z,34.73
2019-05-01T18:35:54.500Z,38.10
2019-05-01T18:41:06.799Z,34.83
2019-05-01T18:46:14.843Z,35.60
2019-05-01T18:51:25.004Z,36.10
2019-05-01T18:56:31.499Z,35.90
2019-05-01T19:01:37.672Z,34.87
2019-05-01T19:06:48.517Z,34.80
2019-05-01T19:11:57.349Z,35.83
2019-05-01T19:17:29.081Z,32.37
2019-05-01T19:22:35.844Z,34.90
2019-05-01T19:27:41.457Z,34.73
2019-05-01T19:32:49.145Z,34.00
2019-05-01T19:37:57.607Z,35.33
2019-05-01T19:43:05.482Z,38.23
2019-05-01T19:48:11.250Z,36.60
2019-05-01T19:53:17.794Z,38.27
2019-05-01T19:58:24.443Z,36.20
2019-05-01T20:03:36.299Z,38.53
2019-05-01T20:08:39.139Z,38.37
2019-05-01T20:13:45.971Z,39.37
2019-05-01T20:18:52.669Z,43.03
2019-05-01T20:24:04.497Z,41.63
2019-05-01T20:29:09.788Z,41.73
2019-05-01T20:34:18.730Z,43.63
2019-05-01T20:39:26.053Z,40.97
2019-05-01T20:44:32.181Z,39.43
2019-05-01T20:49:41.377Z,41.73
2019-05-01T20:54:46.823Z,41.83
2019-05-01T20:59:52.966Z,38.43
2019-05-01T21:05:17.980Z,36.47
2019-05-01T21:10:29.811Z,40.83
2019-05-01T21:15:35.543Z,40.00
2019-05-01T21:20:43.866Z,44.20
2019-05-01T21:25:53.898Z,40.53
2019-05-01T21:31:00.487Z,44.80
2019-05-01T21:36:08.586Z,42.73
2019-05-01T21:41:18.128Z,45.47
2019-05-01T21:46:23.757Z,45.60
2019-05-01T21:51:32.846Z,42.80
2019-05-01T21:56:41.569Z,46.60
2019-05-01T22:01:47.958Z,41.73
2019-05-01T22:06:54.190Z,41.17
2019-05-01T22:12:00.643Z,39.53
2019-05-01T22:17:15.815Z,36.83
2019-05-01T22:22:38.681Z,37.97
2019-05-01T22:27:50.745Z,38.53
2019-05-01T22:32:58.232Z,36.47
2019-05-01T22:38:06.255Z,37.13
2019-05-01T22:43:14.921Z,34.37
2019-05-01T22:48:21.139Z,33.83
2019-05-01T22:53:27.478Z,32.27
2019-05-01T22:58:33.899Z,34.97
2019-05-01T23:03:58.991Z,34.30
2019-05-01T23:09:07.058Z,34.37
2019-05-01T23:14:14.138Z,30.47
2019-05-01T23:19:22.705Z,34.37
2019-05-01T23:24:27.065Z,34.87
2019-05-01T23:29:36.688Z,31.60
2019-05-01T23:34:44.030Z,33.10
2019-05-01T23:39:50.785Z,28.77
2019-05-01T23:44:57.949Z,29.83
2019-05-01T23:50:03.410Z,26.43
2019-05-01T23:55:09.934Z,28.47
